Time;durP1;ratioP1;P1;durP2;ratioP2;P2;SDS_P1;SDS_P2;PMS_P1;PMS_P2;Temp;Humidity;BMP_temperature;BMP_pressure;BME280_temperature;BME280_humidity;BME280_pressure;Samples;Min_cycle;Max_cycle;Signal;HPM_P1;HPM_P2
2021/09/07 00:01:32;;;;;;;46.30;18.77;;;;;;;7.00;93.00;101409.43;1704866;83;21093;-76
2021/09/07 00:03:59;;;;;;;45.83;17.27;;;;;;;6.95;93.63;101402.89;1705038;84;21101;-76
2021/09/07 00:06:25;;;;;;;42.25;18.50;;;;;;;6.91;93.70;101405.07;1712090;83;21100;-77
2021/09/07 00:08:52;;;;;;;42.73;17.87;;;;;;;6.87;93.78;101409.42;1718486;83;21104;-77
2021/09/07 00:11:21;;;;;;;36.03;16.02;;;;;;;6.83;93.65;101406.81;1718601;83;21017;-78
2021/09/07 00:13:49;;;;;;;40.83;17.73;;;;;;;6.77;93.62;101409.46;1718383;83;21125;-76
2021/09/07 00:16:16;;;;;;;33.85;15.40;;;;;;;6.75;94.12;101411.20;1718642;83;21053;-76
2021/09/07 00:18:45;;;;;;;39.00;15.18;;;;;;;6.71;93.98;101405.09;1718411;83;21532;-76
2021/09/07 00:21:12;;;;;;;39.25;16.12;;;;;;;6.66;93.89;101409.02;1718715;83;21101;-76
2021/09/07 00:23:39;;;;;;;35.28;14.15;;;;;;;6.63;94.22;101403.79;1718561;83;21068;-76
2021/09/07 00:26:06;;;;;;;38.30;16.30;;;;;;;6.59;94.19;101405.10;1718755;83;21501;-77
2021/09/07 00:28:32;;;;;;;31.15;14.05;;;;;;;6.57;94.59;101408.16;1718495;83;21097;-76
2021/09/07 00:30:59;;;;;;;37.90;15.25;;;;;;;6.52;94.78;101410.77;1718600;83;21647;-75
2021/09/07 00:33:26;;;;;;;31.35;14.30;;;;;;;6.48;94.85;101413.81;1718581;83;21017;-76
2021/09/07 00:35:54;;;;;;;37.03;15.38;;;;;;;6.41;94.80;101409.45;1718512;83;21449;-76
2021/09/07 00:38:20;;;;;;;37.85;15.18;;;;;;;6.37;94.67;101410.31;1718534;83;21632;-76
2021/09/07 00:40:48;;;;;;;40.55;15.98;;;;;;;6.31;94.81;101416.87;1692159;83;21033;-78
2021/09/07 00:43:15;;;;;;;28.75;13.78;;;;;;;6.24;94.84;101409.89;1718503;83;21521;-76
2021/09/07 00:45:45;;;;;;;38.05;14.98;;;;;;;6.20;94.98;101409.44;1718729;83;21027;-76
2021/09/07 00:48:12;;;;;;;28.17;12.88;;;;;;;6.19;95.54;101415.52;1718436;83;21084;-76
2021/09/07 00:50:38;;;;;;;34.45;14.53;;;;;;;6.14;95.67;101409.41;1718751;83;21110;-76
2021/09/07 00:53:04;;;;;;;35.25;14.90;;;;;;;6.13;95.91;101407.69;1718502;83;21061;-77
2021/09/07 00:55:31;;;;;;;30.48;12.85;;;;;;;6.06;95.72;101405.05;1733893;82;21097;-77
2021/09/07 00:57:58;;;;;;;31.68;13.95;;;;;;;6.01;95.52;101405.48;1750435;82;21516;-75
2021/09/07 01:00:24;;;;;;;35.33;13.83;;;;;;;5.98;95.79;101405.48;1722318;82;21040;-78
2021/09/07 01:02:51;;;;;;;27.58;12.73;;;;;;;5.94;95.81;101407.65;1720069;82;21218;-76
2021/09/07 01:05:18;;;;;;;31.17;13.85;;;;;;;5.90;95.88;101407.16;1748327;82;21136;-75
2021/09/07 01:07:44;;;;;;;28.52;13.68;;;;;;;5.89;96.63;101411.97;1713538;82;21109;-76
2021/09/07 01:10:12;;;;;;;36.77;15.15;;;;;;;5.85;96.65;101408.90;1737701;81;21104;-76
2021/09/07 01:12:40;;;;;;;35.58;14.43;;;;;;;5.84;96.93;101411.05;1742133;82;21014;-75
2021/09/07 01:15:09;;;;;;;40.65;13.40;;;;;;;5.81;96.86;101405.83;1742719;82;21093;-76
2021/09/07 01:17:38;;;;;;;31.62;15.00;;;;;;;5.77;96.61;101402.31;1742453;82;21050;-76
2021/09/07 01:20:57;;;;;;;32.78;14.10;;;;;;;5.80;96.91;101404.09;1851608;77;28590;-74
2021/09/07 01:23:23;;;;;;;33.13;13.80;;;;;;;5.74;97.06;101401.45;1823751;78;21030;-77
2021/09/07 01:25:50;;;;;;;30.82;14.30;;;;;;;5.71;96.72;101403.63;1823688;78;21067;-75
2021/09/07 01:28:18;;;;;;;27.98;13.93;;;;;;;5.66;96.70;101408.84;1811084;78;22142;-76
2021/09/07 01:30:46;;;;;;;34.85;13.93;;;;;;;5.64;96.81;101406.65;1785080;80;21540;-77
2021/09/07 01:33:14;;;;;;;31.17;14.75;;;;;;;5.61;96.88;101406.65;1784821;80;21000;-76
2021/09/07 01:35:41;;;;;;;27.37;11.63;;;;;;;5.60;97.25;101404.88;1785173;80;21033;-76
2021/09/07 01:38:09;;;;;;;37.17;14.03;;;;;;;5.56;96.94;101410.09;1785142;80;21182;-76
2021/09/07 01:40:35;;;;;;;27.20;12.37;;;;;;;5.52;96.89;101409.23;1785334;80;21617;-76
2021/09/07 01:43:03;;;;;;;30.30;13.03;;;;;;;5.45;96.94;101407.42;1784927;80;21056;-76
2021/09/07 01:45:30;;;;;;;30.10;13.10;;;;;;;5.41;96.87;101411.78;1785033;80;20973;-77
2021/09/07 01:47:58;;;;;;;28.62;12.33;;;;;;;5.38;97.23;101405.66;1754869;80;21060;-76
2021/09/07 01:50:25;;;;;;;23.95;12.40;;;;;;;5.33;97.03;101407.38;1785400;80;21765;-77
2021/09/07 01:52:53;;;;;;;35.23;13.70;;;;;;;5.32;97.30;101403.03;1784921;80;21072;-77
2021/09/07 01:55:20;;;;;;;28.55;12.63;;;;;;;5.29;97.23;101408.22;1785493;80;21552;-76
2021/09/07 01:57:49;;;;;;;35.05;14.63;;;;;;;5.24;96.95;101409.50;1784989;80;21036;-77
2021/09/07 02:00:18;;;;;;;26.50;11.75;;;;;;;5.23;97.32;101404.72;1785915;80;21016;-77
2021/09/07 02:02:45;;;;;;;37.20;13.15;;;;;;;5.22;97.28;101408.62;1786099;80;21124;-76
2021/09/07 02:05:12;;;;;;;30.85;13.68;;;;;;;5.19;97.32;101404.25;1786193;80;21009;-77
2021/09/07 02:07:38;;;;;;;28.15;12.53;;;;;;;5.15;97.15;101402.92;1788926;77;20966;-76
2021/09/07 02:10:07;;;;;;;26.25;12.58;;;;;;;5.11;96.91;101402.05;1789883;80;20985;-75
2021/09/07 02:12:35;;;;;;;26.90;12.55;;;;;;;5.08;97.03;101396.79;1790263;78;21002;-76
2021/09/07 02:15:05;;;;;;;31.48;12.95;;;;;;;5.06;97.19;101405.04;1785800;80;21037;-75
2021/09/07 02:17:32;;;;;;;29.52;12.10;;;;;;;5.06;97.44;101405.04;1785809;80;21563;-75
2021/09/07 02:20:00;;;;;;;26.12;11.85;;;;;;;5.03;97.47;101401.98;1785433;80;21033;-76
2021/09/07 02:22:26;;;;;;;25.85;12.28;;;;;;;5.01;97.39;101408.93;1785193;80;21064;-76
2021/09/07 02:24:53;;;;;;;26.20;12.53;;;;;;;5.02;97.57;101407.22;1785000;80;20961;-77
2021/09/07 02:27:21;;;;;;;27.90;11.83;;;;;;;5.00;97.94;101408.94;1785132;80;21866;-75
2021/09/07 02:29:49;;;;;;;22.95;10.98;;;;;;;4.97;97.78;101407.19;1785491;80;21564;-77
2021/09/07 02:32:17;;;;;;;27.58;12.58;;;;;;;4.95;98.42;101406.30;1785165;80;20982;-74
2021/09/07 02:34:45;;;;;;;30.72;11.65;;;;;;;4.89;98.30;101404.08;1785076;80;21076;-76
2021/09/07 02:37:12;;;;;;;33.23;13.10;;;;;;;4.86;98.42;101406.68;1784726;80;21527;-77
2021/09/07 02:39:40;;;;;;;22.17;10.82;;;;;;;4.81;98.46;101408.81;1784563;80;21142;-76
2021/09/07 02:42:07;;;;;;;23.47;11.97;;;;;;;4.77;98.47;101414.88;1784326;80;21509;-76
2021/09/07 02:44:35;;;;;;;29.27;12.28;;;;;;;4.79;98.71;101415.76;1784662;80;21005;-76
2021/09/07 02:47:03;;;;;;;30.08;12.30;;;;;;;4.75;98.44;101410.06;1784444;80;21622;-76
2021/09/07 02:49:30;;;;;;;27.98;12.00;;;;;;;4.73;98.27;101417.01;1784305;80;21092;-77
2021/09/07 02:51:58;;;;;;;28.85;11.60;;;;;;;4.70;98.50;101415.69;1784338;80;21743;-76
2021/09/07 02:54:26;;;;;;;30.35;13.45;;;;;;;4.69;98.38;101417.84;1782689;80;21083;-75
2021/09/07 02:56:53;;;;;;;25.05;11.25;;;;;;;4.68;98.54;101417.41;1753640;81;21539;-77
2021/09/07 02:59:21;;;;;;;25.12;10.82;;;;;;;4.70;99.00;101423.96;1753216;81;21127;-76
2021/09/07 03:01:50;;;;;;;22.55;10.98;;;;;;;4.69;98.93;101428.28;1776981;80;21048;-77
2021/09/07 03:04:16;;;;;;;24.85;11.10;;;;;;;4.68;99.27;101425.24;1784122;80;21842;-78
2021/09/07 03:06:46;;;;;;;25.17;12.37;;;;;;;4.63;99.03;101423.03;1784691;80;21037;-77
2021/09/07 03:09:16;;;;;;;25.62;11.90;;;;;;;4.61;99.18;101423.45;1784441;80;21035;-76
2021/09/07 03:11:44;;;;;;;25.55;10.82;;;;;;;4.57;98.98;101426.89;1784370;80;21053;-77
2021/09/07 03:14:11;;;;;;;33.88;12.33;;;;;;;4.53;98.89;101425.11;1784471;80;21020;-77
2021/09/07 03:16:39;;;;;;;23.10;11.30;;;;;;;4.54;99.45;101421.66;1784340;80;21013;-76
2021/09/07 03:19:06;;;;;;;21.55;10.60;;;;;;;4.56;99.65;101430.37;1784484;80;21665;-76
2021/09/07 03:21:34;;;;;;;28.95;12.15;;;;;;;4.55;99.60;101426.86;1790541;80;21040;-76
2021/09/07 03:24:01;;;;;;;26.77;12.30;;;;;;;4.55;99.57;101429.91;1792133;80;21005;-77
2021/09/07 03:26:30;;;;;;;25.37;11.90;;;;;;;4.55;99.47;101434.69;1792546;80;20989;-76
2021/09/07 03:28:56;;;;;;;26.80;11.68;;;;;;;4.56;99.42;101438.20;1761986;80;21538;-75
2021/09/07 03:31:23;;;;;;;26.82;11.30;;;;;;;4.58;99.56;101436.48;1790506;80;20989;-76
2021/09/07 03:33:51;;;;;;;31.17;13.62;;;;;;;4.60;99.45;101438.64;1790320;80;21048;-78
2021/09/07 03:36:18;;;;;;;27.45;11.25;;;;;;;4.63;99.70;101434.78;1790740;80;21048;-76
2021/09/07 03:38:47;;;;;;;20.82;10.40;;;;;;;4.65;99.54;101426.94;1790595;80;21020;-76
2021/09/07 03:41:14;;;;;;;28.02;12.43;;;;;;;4.67;99.61;101426.12;1790437;80;21553;-77
2021/09/07 03:43:42;;;;;;;27.27;11.55;;;;;;;4.73;99.97;101431.36;1790174;80;21080;-77
2021/09/07 03:46:09;;;;;;;24.27;12.10;;;;;;;4.75;99.68;101432.25;1790159;80;21508;-76
2021/09/07 03:48:36;;;;;;;28.32;11.53;;;;;;;4.77;99.57;101424.01;1789937;80;21024;-77
2021/09/07 03:51:03;;;;;;;30.88;11.93;;;;;;;4.80;99.73;101427.94;1790263;80;20957;-77
2021/09/07 03:53:34;;;;;;;29.48;13.20;;;;;;;4.88;99.75;101433.64;1786872;80;21579;-77
2021/09/07 03:56:01;;;;;;;24.12;11.05;;;;;;;4.94;100.00;101429.34;1768652;80;20993;-78
2021/09/07 03:58:27;;;;;;;27.15;12.68;;;;;;;4.99;99.81;101430.27;1759317;81;21095;-78
2021/09/07 04:00:54;;;;;;;28.65;11.75;;;;;;;5.10;99.73;101423.78;1759209;81;21134;-78
2021/09/07 04:03:22;;;;;;;26.33;11.45;;;;;;;5.49;100.00;101428.78;1758797;81;21040;-78
2021/09/07 04:05:49;;;;;;;27.15;11.97;;;;;;;6.08;100.00;101420.75;1759720;81;21099;-78
2021/09/07 04:08:17;;;;;;;26.15;11.75;;;;;;;6.67;98.37;101425.17;1758751;81;21575;-78
2021/09/07 04:10:46;;;;;;;28.57;12.43;;;;;;;7.09;96.37;101423.82;1759095;81;21036;-77
2021/09/07 04:13:16;;;;;;;24.05;11.78;;;;;;;7.32;94.43;101424.63;1758742;81;21554;-77
2021/09/07 04:15:44;;;;;;;21.77;11.38;;;;;;;7.58;93.60;101426.28;1758964;81;21056;-78
2021/09/07 04:18:11;;;;;;;29.20;11.10;;;;;;;7.89;92.26;101430.06;1758568;81;21147;-78
2021/09/07 04:20:38;;;;;;;28.27;11.78;;;;;;;8.27;90.51;101428.98;1758831;81;21060;-77
2021/09/07 04:23:05;;;;;;;23.27;11.60;;;;;;;8.79;89.45;101424.23;1758991;81;21558;-78
2021/09/07 04:25:34;;;;;;;24.60;11.43;;;;;;;9.40;87.11;101424.48;1758703;81;21064;-77
2021/09/07 04:28:00;;;;;;;24.30;10.63;;;;;;;9.95;85.05;101428.18;1758881;81;21020;-78
2021/09/07 04:30:27;;;;;;;25.37;11.80;;;;;;;10.42;82.84;101422.26;1759226;81;21232;-78
2021/09/07 04:32:55;;;;;;;23.20;11.33;;;;;;;10.85;80.24;101421.98;1758720;81;21120;-78
2021/09/07 04:35:21;;;;;;;24.05;12.07;;;;;;;11.32;78.94;101428.16;1759160;81;21051;-78
2021/09/07 04:37:49;;;;;;;29.15;12.20;;;;;;;11.81;75.50;101425.83;1759154;81;21090;-79
2021/09/07 04:40:16;;;;;;;29.65;12.45;;;;;;;12.24;73.03;101426.23;1759405;81;21095;-77
2021/09/07 04:42:44;;;;;;;30.97;12.03;;;;;;;12.58;71.41;101418.80;1758970;81;21138;-78
2021/09/07 04:45:12;;;;;;;28.83;13.35;;;;;;;13.03;69.29;101419.85;1758941;81;21100;-78
2021/09/07 04:47:39;;;;;;;21.57;11.43;;;;;;;13.54;67.28;101415.38;1759367;81;21032;-78
2021/09/07 04:50:08;;;;;;;29.35;12.90;;;;;;;13.88;64.50;101418.82;1758867;81;21025;-76
2021/09/07 04:52:34;;;;;;;22.62;12.50;;;;;;;14.05;62.75;101413.39;1759155;81;21024;-77
2021/09/07 04:55:01;;;;;;;23.05;12.68;;;;;;;14.25;62.33;101411.92;1759037;81;21756;-78
2021/09/07 04:57:29;;;;;;;23.77;11.97;;;;;;;14.50;60.90;101409.81;1759011;81;21037;-78
2021/09/07 04:59:55;;;;;;;27.00;11.80;;;;;;;14.72;59.65;101413.48;1758895;81;21016;-77
2021/09/07 05:02:23;;;;;;;26.90;13.43;;;;;;;15.05;58.80;101410.61;1759064;81;21048;-78
2021/09/07 05:04:51;;;;;;;23.73;12.07;;;;;;;15.46;56.99;101408.22;1758878;81;21064;-76
2021/09/07 05:07:18;;;;;;;27.62;13.48;;;;;;;15.83;56.06;101413.06;1758941;81;21142;-77
2021/09/07 05:09:46;;;;;;;31.52;11.57;;;;;;;16.03;54.93;101404.30;1759297;81;21032;-77
2021/09/07 05:12:12;;;;;;;33.78;12.13;;;;;;;16.30;54.71;101408.12;1759219;81;21055;-79
2021/09/07 05:14:41;;;;;;;25.37;10.90;;;;;;;16.79;53.45;101400.78;1758898;81;21583;-80
2021/09/07 05:17:10;;;;;;;25.48;10.82;;;;;;;17.38;51.74;101401.76;1759127;81;21032;-78
2021/09/07 05:19:36;;;;;;;22.05;10.78;;;;;;;17.88;49.95;101405.73;1759101;81;21110;-77
2021/09/07 05:22:06;;;;;;;27.30;10.58;;;;;;;18.43;49.02;101407.05;1758871;81;21024;-78
2021/09/07 05:24:33;;;;;;;24.20;9.60;;;;;;;18.94;46.45;101408.05;1759083;81;21060;-77
2021/09/07 05:27:00;;;;;;;19.65;9.33;;;;;;;19.41;45.45;101404.66;1759446;81;21060;-76
2021/09/07 05:29:28;;;;;;;15.35;8.60;;;;;;;19.85;43.99;101408.11;1759111;81;21110;-77
2021/09/07 05:31:54;;;;;;;17.20;7.95;;;;;;;20.25;42.33;101408.52;1759816;81;21129;-78
2021/09/07 05:34:21;;;;;;;14.75;7.30;;;;;;;20.50;40.97;101407.11;1760816;81;21017;-79
2021/09/07 05:36:48;;;;;;;14.25;7.35;;;;;;;20.57;39.07;101406.28;1760360;81;21113;-78
2021/09/07 05:39:15;;;;;;;11.57;6.40;;;;;;;20.67;38.11;101412.34;1760516;81;20981;-77
2021/09/07 05:41:42;;;;;;;9.90;6.20;;;;;;;20.80;37.78;101407.59;1761710;81;20957;-76
2021/09/07 05:44:10;;;;;;;13.13;6.58;;;;;;;21.14;37.04;101409.98;1762166;81;21482;-77
2021/09/07 05:46:38;;;;;;;12.03;6.80;;;;;;;21.56;37.00;101410.98;1760937;81;21083;-76
2021/09/07 05:49:05;;;;;;;12.78;6.85;;;;;;;21.99;35.21;101416.30;1760640;81;21004;-76
2021/09/07 05:51:32;;;;;;;12.30;6.83;;;;;;;22.41;34.87;101415.81;1760944;81;21071;-77
2021/09/07 05:54:01;;;;;;;11.03;6.40;;;;;;;22.88;33.99;101411.37;1732519;81;21012;-77
2021/09/07 05:56:28;;;;;;;12.43;6.17;;;;;;;23.21;32.17;101414.45;1759936;81;21593;-77
2021/09/07 05:59:00;;;;;;;15.00;6.03;;;;;;;23.33;31.00;101409.15;1759730;81;21044;-76
2021/09/07 06:01:24;;;;;;;7.97;5.37;;;;;;;23.20;30.80;101410.02;1759655;81;21580;-78
2021/09/07 06:03:52;;;;;;;12.25;5.40;;;;;;;23.04;30.86;101416.94;1759700;81;21063;-77
2021/09/07 06:06:21;;;;;;;9.38;4.72;;;;;;;23.01;30.94;101417.66;1759077;81;21027;-77
2021/09/07 06:08:48;;;;;;;9.90;5.42;;;;;;;22.83;30.00;101417.91;1759208;81;21037;-79
2021/09/07 06:11:16;;;;;;;8.50;5.15;;;;;;;22.70;30.90;101417.01;1759205;81;21000;-79
2021/09/07 06:13:44;;;;;;;12.75;5.00;;;;;;;22.68;30.94;101417.59;1758977;81;21016;-79
2021/09/07 06:16:12;;;;;;;11.25;4.87;;;;;;;22.93;30.74;101422.64;1759214;81;21539;-78
2021/09/07 06:18:39;;;;;;;9.78;4.87;;;;;;;23.25;31.40;101427.17;1759475;81;21079;-77
2021/09/07 06:21:05;;;;;;;11.18;4.67;;;;;;;23.49;29.95;101428.62;1759153;81;21489;-77
2021/09/07 06:23:34;;;;;;;9.38;4.97;;;;;;;23.59;29.29;101431.02;1759091;81;21052;-77
2021/09/07 06:26:00;;;;;;;7.05;4.40;;;;;;;23.51;29.44;101434.73;1759468;81;21088;-78
2021/09/07 06:28:27;;;;;;;7.87;4.90;;;;;;;23.43;28.98;101425.88;1760203;81;20988;-77
2021/09/07 06:30:54;;;;;;;12.37;5.30;;;;;;;23.47;29.76;101429.22;1760120;81;21064;-77
2021/09/07 06:33:20;;;;;;;8.23;5.25;;;;;;;23.32;29.69;101428.95;1759989;81;21028;-77
2021/09/07 06:35:46;;;;;;;10.20;5.15;;;;;;;23.32;29.51;101437.01;1760852;81;21261;-79
2021/09/07 06:38:15;;;;;;;9.25;4.70;;;;;;;23.33;30.26;101433.34;1763762;80;20951;-76
2021/09/07 06:40:41;;;;;;;7.37;4.67;;;;;;;23.42;29.37;101434.03;1762015;80;21067;-76
2021/09/07 06:43:08;;;;;;;10.78;4.78;;;;;;;23.65;29.14;101437.81;1759477;81;21111;-77
2021/09/07 06:45:36;;;;;;;7.62;4.47;;;;;;;24.00;29.43;101442.02;1758986;81;21519;-78
2021/09/07 06:48:03;;;;;;;7.67;4.47;;;;;;;24.32;27.89;101437.91;1759134;81;21032;-77
2021/09/07 06:50:30;;;;;;;12.00;4.90;;;;;;;24.22;27.76;101441.77;1758831;81;21578;-78
2021/09/07 06:52:57;;;;;;;10.50;5.15;;;;;;;24.06;28.19;101452.34;1759369;81;20993;-77
2021/09/07 06:55:25;;;;;;;9.65;4.50;;;;;;;24.20;28.44;101455.83;1755368;81;21492;-78
2021/09/07 06:57:53;;;;;;;10.72;4.75;;;;;;;24.47;28.74;101447.08;1750829;81;21131;-76
2021/09/07 07:00:22;;;;;;;11.55;4.72;;;;;;;24.87;28.65;101445.42;1751035;81;21519;-78
2021/09/07 07:02:50;;;;;;;10.20;4.40;;;;;;;25.33;26.96;101446.42;1751362;81;25776;-74
2021/09/07 07:05:16;;;;;;;8.63;4.50;;;;;;;25.48;26.32;101447.05;1751308;82;21104;-74
2021/09/07 07:07:43;;;;;;;7.87;4.37;;;;;;;25.60;26.39;101448.75;1751630;81;21060;-78
2021/09/07 07:10:10;;;;;;;10.25;4.83;;;;;;;25.60;27.18;101451.95;1751093;82;21491;-77
2021/09/07 07:12:37;;;;;;;7.20;4.42;;;;;;;25.75;25.85;101452.94;1750710;82;21001;-78
2021/09/07 07:15:06;;;;;;;9.45;4.22;;;;;;;25.93;25.59;101451.13;1750798;81;21051;-77
2021/09/07 07:17:32;;;;;;;6.28;3.90;;;;;;;26.01;25.44;101454.05;1750741;82;21064;-77
2021/09/07 07:19:58;;;;;;;6.30;4.30;;;;;;;26.05;24.23;101456.02;1750720;82;21035;-78
2021/09/07 07:22:25;;;;;;;7.75;3.83;;;;;;;25.93;25.30;101451.98;1746028;81;21127;-76
2021/09/07 07:24:53;;;;;;;11.68;4.20;;;;;;;26.09;24.19;101456.98;1744922;82;21606;-77
2021/09/07 07:27:20;;;;;;;12.03;4.70;;;;;;;26.37;24.76;101449.31;1745036;81;21104;-78
2021/09/07 07:29:48;;;;;;;9.85;4.80;;;;;;;26.60;24.68;101451.48;1745248;82;21100;-76
2021/09/07 07:32:14;;;;;;;8.70;4.20;;;;;;;26.99;24.13;101447.23;1745459;81;21088;-77
2021/09/07 07:34:41;;;;;;;7.50;3.92;;;;;;;27.52;23.92;101446.29;1745168;82;21118;-77
2021/09/07 07:37:08;;;;;;;6.45;3.70;;;;;;;27.99;22.92;101449.34;1745199;82;21108;-78
2021/09/07 07:39:37;;;;;;;7.87;3.65;;;;;;;28.16;21.76;101447.83;1745043;82;21096;-77
2021/09/07 07:42:03;;;;;;;8.28;3.80;;;;;;;27.86;21.93;101447.87;1745061;82;21572;-76
2021/09/07 07:44:30;;;;;;;10.58;4.58;;;;;;;27.59;22.27;101446.61;1745175;82;21598;-77
2021/09/07 07:46:57;;;;;;;7.17;3.70;;;;;;;27.59;22.27;101446.61;1745171;81;21940;-77
2021/09/07 07:49:25;;;;;;;8.40;3.85;;;;;;;27.80;21.69;101447.91;1744947;81;21033;-76
2021/09/07 07:51:52;;;;;;;6.92;3.80;;;;;;;27.90;21.92;101444.75;1745058;82;21097;-78
2021/09/07 07:54:19;;;;;;;8.03;3.83;;;;;;;27.94;21.39;101439.93;1745294;82;21076;-76
2021/09/07 07:56:45;;;;;;;8.20;3.85;;;;;;;27.93;21.37;101443.61;1753171;81;22051;-77
2021/09/07 07:59:11;;;;;;;9.30;3.77;;;;;;;27.99;21.38;101443.07;1753548;81;21057;-78
2021/09/07 08:01:38;;;;;;;8.03;3.92;;;;;;;28.04;21.87;101443.50;1753272;81;21036;-76
2021/09/07 08:04:04;;;;;;;8.30;3.35;;;;;;;28.18;21.67;101439.07;1753717;81;21039;-77
2021/09/07 08:06:30;;;;;;;7.40;3.10;;;;;;;28.21;21.35;101442.84;1753608;81;21032;-76
2021/09/07 08:08:57;;;;;;;5.78;3.08;;;;;;;27.18;21.15;101440.23;1753531;81;21563;-77
2021/09/07 08:11:23;;;;;;;7.08;3.87;;;;;;;26.82;22.29;101428.88;1753801;81;21754;-77
2021/09/07 08:13:51;;;;;;;8.93;2.95;;;;;;;27.03;22.53;101430.73;1753486;81;21560;-79
2021/09/07 08:16:20;;;;;;;5.97;3.20;;;;;;;27.04;21.33;101430.61;1753982;81;21048;-77
2021/09/07 08:18:47;;;;;;;8.15;3.65;;;;;;;26.20;22.10;101436.34;1753826;81;20988;-78
2021/09/07 08:21:14;;;;;;;13.55;4.15;;;;;;;25.60;23.17;101437.11;1753341;81;21024;-76
2021/09/07 08:23:40;;;;;;;5.67;3.22;;;;;;;25.49;23.19;101427.17;1753289;81;21314;-80
2021/09/07 08:26:06;;;;;;;12.80;2.40;;;;;;;25.60;23.26;101429.87;1753047;81;21029;-77
2021/09/07 08:28:34;;;;;;;6.47;2.47;;;;;;;25.73;22.46;101438.70;1753240;81;21080;-76
2021/09/07 08:31:01;;;;;;;4.65;2.47;;;;;;;26.06;22.03;101437.47;1753087;81;21025;-78
2021/09/07 08:33:27;;;;;;;6.25;2.90;;;;;;;26.52;22.28;101430.45;1753273;81;21014;-77
2021/09/07 08:35:53;;;;;;;6.90;2.98;;;;;;;26.77;21.83;101424.38;1753075;81;21114;-78
2021/09/07 08:38:20;;;;;;;8.53;3.00;;;;;;;26.57;21.94;101428.28;1753424;81;21091;-78
2021/09/07 08:40:46;;;;;;;6.15;2.72;;;;;;;26.51;21.43;101427.91;1753592;81;21111;-78
2021/09/07 08:43:13;;;;;;;7.15;2.80;;;;;;;26.42;21.94;101429.53;1753221;81;20994;-77
2021/09/07 08:45:41;;;;;;;15.68;3.58;;;;;;;26.49;22.20;101423.97;1753151;81;21036;-78
2021/09/07 08:48:08;;;;;;;8.73;2.98;;;;;;;26.56;21.21;101426.55;1753140;81;21085;-78
2021/09/07 08:50:34;;;;;;;6.70;2.52;;;;;;;26.45;22.21;101423.00;1753060;81;21610;-77
2021/09/07 08:53:01;;;;;;;9.08;2.95;;;;;;;26.28;21.71;101422.58;1753395;81;20993;-77
2021/09/07 08:55:29;;;;;;;9.50;2.87;;;;;;;25.49;21.62;101426.70;1768507;80;21020;-78
2021/09/07 08:57:56;;;;;;;7.03;2.85;;;;;;;25.14;22.78;101429.43;1784372;80;21092;-79
2021/09/07 09:00:29;;;;;;;13.30;3.15;;;;;;;24.86;23.42;101436.95;1784381;80;21583;-78
2021/09/07 09:02:56;;;;;;;6.00;2.30;;;;;;;24.64;23.29;101436.41;1784540;80;21009;-80
2021/09/07 09:05:28;;;;;;;5.83;2.70;;;;;;;24.24;23.78;101433.09;1784785;80;21555;-78
2021/09/07 09:07:56;;;;;;;7.00;2.25;;;;;;;24.18;23.53;101432.20;1784515;80;21099;-78
2021/09/07 09:10:24;;;;;;;7.37;2.58;;;;;;;24.05;23.26;101429.56;1784650;80;21107;-79
2021/09/07 09:13:04;;;;;;;7.83;2.50;;;;;;;23.68;23.67;101428.17;1784444;80;21085;-78
2021/09/07 09:15:31;;;;;;;6.12;2.65;;;;;;;23.53;23.92;101422.04;1757853;80;21006;-77
2021/09/07 09:18:11;;;;;;;4.40;2.20;;;;;;;23.74;24.42;101424.16;1784552;80;21024;-78
2021/09/07 09:20:39;;;;;;;12.30;2.92;;;;;;;24.16;23.78;101420.72;1784651;80;21005;-78
2021/09/07 09:23:08;;;;;;;4.45;2.60;;;;;;;24.45;23.81;101415.83;1789385;80;21040;-78
2021/09/07 09:25:40;;;;;;;5.72;2.00;;;;;;;24.52;24.04;101420.30;1761766;80;21100;-78
2021/09/07 09:28:17;;;;;;;7.12;2.77;;;;;;;24.42;22.59;101425.49;1790344;80;21068;-78
2021/09/07 09:30:54;;;;;;;6.20;2.52;;;;;;;24.14;24.12;101424.00;1790268;80;21016;-77
2021/09/07 09:33:24;;;;;;;14.78;3.25;;;;;;;23.08;25.27;101425.66;1790232;80;22326;-79
2021/09/07 09:36:01;;;;;;;8.60;3.02;;;;;;;22.45;25.99;101428.53;1790294;79;21024;-77
2021/09/07 09:38:34;;;;;;;7.95;3.37;;;;;;;21.89;27.19;101423.20;1790251;80;21051;-77
2021/09/07 09:41:04;;;;;;;7.28;3.10;;;;;;;21.63;27.38;101426.69;1790441;80;21560;-78
2021/09/07 09:43:43;;;;;;;8.33;3.58;;;;;;;21.36;28.02;101423.39;1755029;81;21027;-75
2021/09/07 09:46:26;;;;;;;9.00;3.17;;;;;;;21.05;28.82;101418.58;1734130;82;21065;-78
2021/09/07 09:49:13;;;;;;;11.33;3.60;;;;;;;20.88;28.39;101414.22;1737426;82;22166;-77
2021/09/07 09:51:42;;;;;;;7.60;3.72;;;;;;;20.89;29.00;101413.73;1719400;82;21548;-78
2021/09/07 09:54:11;;;;;;;13.83;3.35;;;;;;;20.94;29.86;101418.36;1737069;82;21057;-77
2021/09/07 09:56:38;;;;;;;7.58;3.30;;;;;;;21.43;28.61;101415.87;1737028;81;21579;-78
2021/09/07 09:59:06;;;;;;;8.03;3.58;;;;;;;21.96;28.43;101415.63;1737185;82;21085;-77
2021/09/07 10:01:34;;;;;;;9.73;3.35;;;;;;;22.39;28.01;101408.34;1737026;82;21517;-78
2021/09/07 10:04:01;;;;;;;9.38;3.70;;;;;;;22.82;27.33;101410.83;1737481;82;21096;-78
2021/09/07 10:06:27;;;;;;;9.20;3.30;;;;;;;22.89;27.79;101414.41;1737325;82;20997;-78
2021/09/07 10:08:54;;;;;;;9.88;3.90;;;;;;;22.91;27.37;101408.45;1718796;82;21069;-78
2021/09/07 10:11:23;;;;;;;10.03;3.90;;;;;;;22.75;27.81;101410.88;1737323;81;21572;-78
2021/09/07 10:13:53;;;;;;;8.90;3.47;;;;;;;22.08;28.84;101412.14;1737579;82;21065;-77
2021/09/07 10:16:38;;;;;;;9.30;3.85;;;;;;;21.95;28.48;101420.13;1737255;82;21507;-78
2021/09/07 10:19:13;;;;;;;10.05;3.80;;;;;;;21.95;29.22;101420.13;1729995;82;21490;-76
2021/09/07 10:24:20;;;;;;;9.53;3.17;;;;;;;21.18;29.42;101417.83;1731345;82;21101;-78
2021/09/07 10:26:48;;;;;;;7.65;3.50;;;;;;;21.07;30.87;101412.66;1730444;82;21034;-80
2021/09/07 10:29:35;;;;;;;11.18;3.42;;;;;;;21.49;29.31;101416.35;1731510;82;21133;-79
2021/09/07 10:32:01;;;;;;;7.45;3.55;;;;;;;22.06;28.43;101413.20;1731537;82;21026;-78
2021/09/07 10:34:30;;;;;;;8.38;3.37;;;;;;;22.55;28.54;101402.81;1710899;82;21105;-78
2021/09/07 10:37:02;;;;;;;7.97;3.42;;;;;;;22.83;26.70;101407.66;1731930;82;21010;-76
2021/09/07 10:39:41;;;;;;;8.73;3.02;;;;;;;22.61;26.79;101405.09;1733212;82;21664;-78
2021/09/07 10:42:35;;;;;;;8.95;3.30;;;;;;;22.25;26.90;101408.41;1732750;82;21509;-80
2021/09/07 10:45:01;;;;;;;6.80;3.45;;;;;;;22.37;27.08;101412.95;1731455;82;21088;-78
2021/09/07 10:47:41;;;;;;;7.12;2.92;;;;;;;22.53;26.58;101399.86;1731540;82;21026;-77
2021/09/07 10:50:08;;;;;;;6.75;3.15;;;;;;;22.81;26.95;101399.69;1731370;82;21100;-78
2021/09/07 10:52:35;;;;;;;7.80;3.33;;;;;;;23.20;26.47;101396.59;1731372;82;21026;-78
2021/09/07 10:55:08;;;;;;;7.33;2.77;;;;;;;23.37;25.56;101399.91;1732065;82;21756;-78
2021/09/07 10:57:46;;;;;;;8.85;3.00;;;;;;;23.34;25.83;101396.10;1732228;82;21033;-78
2021/09/07 11:00:28;;;;;;;9.08;2.90;;;;;;;23.43;25.66;101400.83;1732729;82;21022;-79
2021/09/07 11:03:00;;;;;;;7.75;2.70;;;;;;;23.58;26.02;101401.09;1732423;82;21046;-79
2021/09/07 11:05:34;;;;;;;15.78;3.25;;;;;;;23.90;25.28;101400.59;1735251;82;20990;-77
2021/09/07 11:08:11;;;;;;;6.05;3.02;;;;;;;24.12;24.19;101402.58;1736343;78;21136;-77
2021/09/07 11:10:52;;;;;;;6.47;2.87;;;;;;;23.64;25.09;101397.08;1735209;81;21061;-76
2021/09/07 11:13:25;;;;;;;13.03;5.03;;;;;;;23.44;24.84;101396.70;1732085;82;21065;-79
2021/09/07 11:15:56;;;;;;;6.22;2.87;;;;;;;23.33;24.75;101393.91;1731405;82;21042;-77
2021/09/07 11:18:28;;;;;;;9.20;3.22;;;;;;;23.18;26.39;101387.77;1731885;82;21054;-77
2021/09/07 11:20:57;;;;;;;4.33;2.65;;;;;;;22.99;25.48;101391.38;1731435;82;21793;-77
2021/09/07 11:23:31;;;;;;;9.63;2.62;;;;;;;22.87;25.91;101389.48;1748734;81;21124;-78
2021/09/07 11:26:03;;;;;;;8.58;3.27;;;;;;;22.85;26.09;101389.61;1758267;81;21085;-77
2021/09/07 11:28:34;;;;;;;7.12;2.98;;;;;;;22.68;26.06;101385.38;1758290;81;21073;-77